sensor_id;sensor_type;location;lat;lon;timestamp;temperature;humidity
6538;DHT22;3302;52.508;13.454;2022-11-12T00:00:31;9.10;99.90
6538;DHT22;3302;52.508;13.454;2022-11-12T00:02:57;9.10;99.90
6538;DHT22;3302;52.508;13.454;2022-11-12T00:05:23;9.10;99.90
6538;DHT22;3302;52.508;13.454;2022-11-12T00:07:49;9.10;99.90
6538;DHT22;3302;52.508;13.454;2022-11-12T00:10:15;9.10;99.90
6538;DHT22;3302;52.508;13.454;2022-11-12T00:12:41;9.00;99.90
6538;DHT22;3302;52.508;13.454;2022-11-12T00:15:08;9.00;99.90
6538;DHT22;3302;52.508;13.454;2022-11-12T00:17:34;9.00;99.90
6538;DHT22;3302;52.508;13.454;2022-11-12T00:19:59;9.10;99.90
6538;DHT22;3302;52.508;13.454;2022-11-12T00:22:25;9.10;99.90
6538;DHT22;3302;52.508;13.454;2022-11-12T00:24:51;9.20;99.90
6538;DHT22;3302;52.508;13.454;2022-11-12T00:27:17;9.20;99.90
6538;DHT22;3302;52.508;13.454;2022-11-12T00:29:42;9.10;99.90
6538;DHT22;3302;52.508;13.454;2022-11-12T00:32:09;9.00;99.90
6538;DHT22;3302;52.508;13.454;2022-11-12T00:34:35;9.10;99.90
6538;DHT22;3302;52.508;13.454;2022-11-12T00:37:01;9.20;99.90
6538;DHT22;3302;52.508;13.454;2022-11-12T00:39:28;9.20;99.90
6538;DHT22;3302;52.508;13.454;2022-11-12T00:41:54;9.10;99.90
6538;DHT22;3302;52.508;13.454;2022-11-12T00:44:20;9.10;99.90
6538;DHT22;3302;52.508;13.454;2022-11-12T00:46:46;9.00;99.90
6538;DHT22;3302;52.508;13.454;2022-11-12T00:49:12;9.00;99.90
6538;DHT22;3302;52.508;13.454;2022-11-12T00:51:38;8.90;99.90
6538;DHT22;3302;52.508;13.454;2022-11-12T00:54:04;9.00;99.90
6538;DHT22;3302;52.508;13.454;2022-11-12T00:56:30;9.00;99.90
6538;DHT22;3302;52.508;13.454;2022-11-12T00:58:57;9.00;99.90
6538;DHT22;3302;52.508;13.454;2022-11-12T01:01:23;9.00;99.90
6538;DHT22;3302;52.508;13.454;2022-11-12T01:03:49;9.00;99.90
6538;DHT22;3302;52.508;13.454;2022-11-12T01:06:18;9.10;99.90
6538;DHT22;3302;52.508;13.454;2022-11-12T01:08:44;9.00;99.90
6538;DHT22;3302;52.508;13.454;2022-11-12T01:11:19;9.00;99.90
6538;DHT22;3302;52.508;13.454;2022-11-12T01:13:46;9.10;99.90
6538;DHT22;3302;52.508;13.454;2022-11-12T01:16:19;9.20;99.90
6538;DHT22;3302;52.508;13.454;2022-11-12T01:18:46;9.10;99.90
6538;DHT22;3302;52.508;13.454;2022-11-12T01:21:12;9.20;99.90
6538;DHT22;3302;52.508;13.454;2022-11-12T01:23:40;9.20;99.90
6538;DHT22;3302;52.508;13.454;2022-11-12T01:26:09;9.10;99.90
6538;DHT22;3302;52.508;13.454;2022-11-12T01:28:36;9.10;99.90
6538;DHT22;3302;52.508;13.454;2022-11-12T01:31:16;9.10;99.90
6538;DHT22;3302;52.508;13.454;2022-11-12T01:33:43;9.10;99.90
6538;DHT22;3302;52.508;13.454;2022-11-12T01:36:10;9.10;99.90
6538;DHT22;3302;52.508;13.454;2022-11-12T01:38:38;9.10;99.90
6538;DHT22;3302;52.508;13.454;2022-11-12T01:41:06;9.10;99.80
6538;DHT22;3302;52.508;13.454;2022-11-12T01:43:33;9.10;99.90
6538;DHT22;3302;52.508;13.454;2022-11-12T01:46:01;9.10;99.90
6538;DHT22;3302;52.508;13.454;2022-11-12T01:48:34;9.10;99.90
6538;DHT22;3302;52.508;13.454;2022-11-12T01:51:03;9.00;99.90
6538;DHT22;3302;52.508;13.454;2022-11-12T01:53:31;9.10;99.10
6538;DHT22;3302;52.508;13.454;2022-11-12T01:55:59;9.20;99.30
6538;DHT22;3302;52.508;13.454;2022-11-12T01:58:28;9.20;98.90
6538;DHT22;3302;52.508;13.454;2022-11-12T02:00:56;9.10;99.10
6538;DHT22;3302;52.508;13.454;2022-11-12T02:03:23;9.10;99.20
6538;DHT22;3302;52.508;13.454;2022-11-12T02:05:54;9.10;99.60
6538;DHT22;3302;52.508;13.454;2022-11-12T02:08:22;9.00;99.70
6538;DHT22;3302;52.508;13.454;2022-11-12T02:10:49;9.00;99.60
6538;DHT22;3302;52.508;13.454;2022-11-12T02:13:16;9.00;99.40
6538;DHT22;3302;52.508;13.454;2022-11-12T02:16:03;9.00;99.40
6538;DHT22;3302;52.508;13.454;2022-11-12T02:18:29;9.00;99.10
6538;DHT22;3302;52.508;13.454;2022-11-12T02:20:57;9.00;99.20
6538;DHT22;3302;52.508;13.454;2022-11-12T02:23:24;9.10;99.00
6538;DHT22;3302;52.508;13.454;2022-11-12T02:25:49;9.00;99.10
6538;DHT22;3302;52.508;13.454;2022-11-12T02:28:16;9.00;99.00
6538;DHT22;3302;52.508;13.454;2022-11-12T02:30:47;9.10;98.80
6538;DHT22;3302;52.508;13.454;2022-11-12T02:33:13;9.00;98.80
6538;DHT22;3302;52.508;13.454;2022-11-12T02:35:39;9.10;98.70
6538;DHT22;3302;52.508;13.454;2022-11-12T02:38:06;9.10;98.40
6538;DHT22;3302;52.508;13.454;2022-11-12T02:40:32;9.20;98.80
6538;DHT22;3302;52.508;13.454;2022-11-12T02:42:58;9.10;98.50
6538;DHT22;3302;52.508;13.454;2022-11-12T02:45:25;9.10;98.60
6538;DHT22;3302;52.508;13.454;2022-11-12T02:47:51;9.10;98.50
6538;DHT22;3302;52.508;13.454;2022-11-12T02:50:17;9.10;98.50
6538;DHT22;3302;52.508;13.454;2022-11-12T02:52:43;9.00;98.40
6538;DHT22;3302;52.508;13.454;2022-11-12T02:55:11;9.10;98.40
6538;DHT22;3302;52.508;13.454;2022-11-12T02:57:38;9.20;98.30
6538;DHT22;3302;52.508;13.454;2022-11-12T03:00:06;9.20;98.70
6538;DHT22;3302;52.508;13.454;2022-11-12T03:02:32;9.10;98.20
6538;DHT22;3302;52.508;13.454;2022-11-12T03:04:58;9.20;98.20
6538;DHT22;3302;52.508;13.454;2022-11-12T03:07:24;9.20;98.10
6538;DHT22;3302;52.508;13.454;2022-11-12T03:09:50;9.20;98.00
6538;DHT22;3302;52.508;13.454;2022-11-12T03:12:16;9.20;98.20
6538;DHT22;3302;52.508;13.454;2022-11-12T03:14:42;9.10;98.10
6538;DHT22;3302;52.508;13.454;2022-11-12T03:17:07;9.10;98.30
6538;DHT22;3302;52.508;13.454;2022-11-12T03:19:33;9.10;98.40
6538;DHT22;3302;52.508;13.454;2022-11-12T03:21:59;9.00;98.60
6538;DHT22;3302;52.508;13.454;2022-11-12T03:24:25;8.90;99.00
6538;DHT22;3302;52.508;13.454;2022-11-12T03:26:52;8.70;99.70
6538;DHT22;3302;52.508;13.454;2022-11-12T03:29:19;8.60;99.90
6538;DHT22;3302;52.508;13.454;2022-11-12T03:31:45;8.70;99.90
6538;DHT22;3302;52.508;13.454;2022-11-12T03:34:11;8.60;99.90
6538;DHT22;3302;52.508;13.454;2022-11-12T03:36:37;8.50;99.90
6538;DHT22;3302;52.508;13.454;2022-11-12T03:39:02;8.50;99.90
6538;DHT22;3302;52.508;13.454;2022-11-12T03:41:28;8.50;99.90
6538;DHT22;3302;52.508;13.454;2022-11-12T03:43:54;8.40;99.90
6538;DHT22;3302;52.508;13.454;2022-11-12T03:46:20;8.30;99.90
6538;DHT22;3302;52.508;13.454;2022-11-12T03:48:46;8.30;99.90
6538;DHT22;3302;52.508;13.454;2022-11-12T03:51:11;8.30;99.90
6538;DHT22;3302;52.508;13.454;2022-11-12T03:53:41;8.20;99.90
6538;DHT22;3302;52.508;13.454;2022-11-12T03:56:07;8.20;99.90
6538;DHT22;3302;52.508;13.454;2022-11-12T03:58:32;8.30;99.90
6538;DHT22;3302;52.508;13.454;2022-11-12T04:00:58;8.20;99.90
6538;DHT22;3302;52.508;13.454;2022-11-12T04:03:24;8.20;99.90
6538;DHT22;3302;52.508;13.454;2022-11-12T04:05:50;8.30;99.90
6538;DHT22;3302;52.508;13.454;2022-11-12T04:08:34;8.30;99.90
6538;DHT22;3302;52.508;13.454;2022-11-12T04:11:10;8.20;99.90
6538;DHT22;3302;52.508;13.454;2022-11-12T04:13:40;8.20;99.90
6538;DHT22;3302;52.508;13.454;2022-11-12T04:16:08;8.10;99.90
6538;DHT22;3302;52.508;13.454;2022-11-12T04:18:54;8.20;99.90
6538;DHT22;3302;52.508;13.454;2022-11-12T04:21:44;8.10;99.90
6538;DHT22;3302;52.508;13.454;2022-11-12T04:24:37;8.20;99.90
6538;DHT22;3302;52.508;13.454;2022-11-12T04:29:50;8.10;99.90
6538;DHT22;3302;52.508;13.454;2022-11-12T04:32:39;8.10;99.90
6538;DHT22;3302;52.508;13.454;2022-11-12T04:35:07;8.00;99.90
6538;DHT22;3302;52.508;13.454;2022-11-12T04:37:34;8.00;99.90
6538;DHT22;3302;52.508;13.454;2022-11-12T04:42:56;7.90;99.90
6538;DHT22;3302;52.508;13.454;2022-11-12T04:45:42;7.90;99.90
6538;DHT22;3302;52.508;13.454;2022-11-12T04:48:09;7.80;99.90
6538;DHT22;3302;52.508;13.454;2022-11-12T04:50:35;7.70;99.90
6538;DHT22;3302;52.508;13.454;2022-11-12T04:53:02;7.70;99.90
6538;DHT22;3302;52.508;13.454;2022-11-12T04:55:27;7.70;99.90
6538;DHT22;3302;52.508;13.454;2022-11-12T04:57:53;7.60;99.90
6538;DHT22;3302;52.508;13.454;2022-11-12T05:00:19;7.60;99.90
6538;DHT22;3302;52.508;13.454;2022-11-12T05:02:45;7.50;99.90
6538;DHT22;3302;52.508;13.454;2022-11-12T05:05:11;7.50;99.90
6538;DHT22;3302;52.508;13.454;2022-11-12T05:07:36;7.60;99.90
6538;DHT22;3302;52.508;13.454;2022-11-12T05:10:02;7.50;99.90
6538;DHT22;3302;52.508;13.454;2022-11-12T05:12:28;7.50;99.90
6538;DHT22;3302;52.508;13.454;2022-11-12T05:14:54;7.40;99.90
6538;DHT22;3302;52.508;13.454;2022-11-12T05:17:20;7.40;99.90
6538;DHT22;3302;52.508;13.454;2022-11-12T05:19:45;7.40;99.90
6538;DHT22;3302;52.508;13.454;2022-11-12T05:22:11;7.30;99.90
6538;DHT22;3302;52.508;13.454;2022-11-12T05:24:39;7.30;99.90
6538;DHT22;3302;52.508;13.454;2022-11-12T05:27:11;7.30;99.90
6538;DHT22;3302;52.508;13.454;2022-11-12T05:29:38;7.00;99.90
6538;DHT22;3302;52.508;13.454;2022-11-12T05:32:05;7.10;99.90
6538;DHT22;3302;52.508;13.454;2022-11-12T05:34:30;7.00;99.90
6538;DHT22;3302;52.508;13.454;2022-11-12T05:36:56;6.80;99.90
6538;DHT22;3302;52.508;13.454;2022-11-12T05:39:22;6.80;99.90
6538;DHT22;3302;52.508;13.454;2022-11-12T05:41:48;6.90;99.90
6538;DHT22;3302;52.508;13.454;2022-11-12T05:44:14;7.00;99.90
6538;DHT22;3302;52.508;13.454;2022-11-12T05:46:40;6.90;99.90
6538;DHT22;3302;52.508;13.454;2022-11-12T05:49:06;6.90;99.90
6538;DHT22;3302;52.508;13.454;2022-11-12T05:51:31;6.90;99.90
6538;DHT22;3302;52.508;13.454;2022-11-12T05:53:57;6.90;99.90
6538;DHT22;3302;52.508;13.454;2022-11-12T05:56:23;6.90;99.90
6538;DHT22;3302;52.508;13.454;2022-11-12T05:58:49;6.90;99.90
6538;DHT22;3302;52.508;13.454;2022-11-12T06:01:15;6.90;99.90
6538;DHT22;3302;52.508;13.454;2022-11-12T06:03:41;6.70;99.90
6538;DHT22;3302;52.508;13.454;2022-11-12T06:06:07;6.50;99.90
6538;DHT22;3302;52.508;13.454;2022-11-12T06:08:33;6.40;99.90
6538;DHT22;3302;52.508;13.454;2022-11-12T06:10:58;6.40;99.90
6538;DHT22;3302;52.508;13.454;2022-11-12T06:13:25;6.30;99.90
6538;DHT22;3302;52.508;13.454;2022-11-12T06:15:54;6.30;99.90
6538;DHT22;3302;52.508;13.454;2022-11-12T06:18:21;6.40;99.90
6538;DHT22;3302;52.508;13.454;2022-11-12T06:20:47;6.60;99.90
6538;DHT22;3302;52.508;13.454;2022-11-12T06:23:32;6.70;99.90
6538;DHT22;3302;52.508;13.454;2022-11-12T06:25:58;6.50;99.90
6538;DHT22;3302;52.508;13.454;2022-11-12T06:28:24;6.50;99.90
6538;DHT22;3302;52.508;13.454;2022-11-12T06:30:50;6.60;99.90
6538;DHT22;3302;52.508;13.454;2022-11-12T06:33:15;6.60;99.90
6538;DHT22;3302;52.508;13.454;2022-11-12T06:35:41;6.70;99.90
6538;DHT22;3302;52.508;13.454;2022-11-12T06:38:07;6.50;99.90
6538;DHT22;3302;52.508;13.454;2022-11-12T06:40:33;6.50;99.90
6538;DHT22;3302;52.508;13.454;2022-11-12T06:42:59;6.60;99.90
6538;DHT22;3302;52.508;13.454;2022-11-12T06:45:25;6.60;99.90
6538;DHT22;3302;52.508;13.454;2022-11-12T06:47:51;6.70;99.90
6538;DHT22;3302;52.508;13.454;2022-11-12T06:50:16;6.60;99.90
6538;DHT22;3302;52.508;13.454;2022-11-12T06:52:42;6.60;99.90
6538;DHT22;3302;52.508;13.454;2022-11-12T06:55:08;6.60;99.90
6538;DHT22;3302;52.508;13.454;2022-11-12T06:57:34;6.60;99.90
6538;DHT22;3302;52.508;13.454;2022-11-12T07:00:00;6.70;99.90
6538;DHT22;3302;52.508;13.454;2022-11-12T07:02:26;6.70;99.90
6538;DHT22;3302;52.508;13.454;2022-11-12T07:04:51;6.70;99.90
6538;DHT22;3302;52.508;13.454;2022-11-12T07:07:17;6.60;99.90
6538;DHT22;3302;52.508;13.454;2022-11-12T07:09:43;6.60;99.90
6538;DHT22;3302;52.508;13.454;2022-11-12T07:12:09;6.70;99.90
6538;DHT22;3302;52.508;13.454;2022-11-12T07:14:34;6.80;99.90
6538;DHT22;3302;52.508;13.454;2022-11-12T07:17:00;6.90;99.90
6538;DHT22;3302;52.508;13.454;2022-11-12T07:19:26;6.80;99.90
6538;DHT22;3302;52.508;13.454;2022-11-12T07:21:52;6.70;99.90
6538;DHT22;3302;52.508;13.454;2022-11-12T07:24:17;6.70;99.90
6538;DHT22;3302;52.508;13.454;2022-11-12T07:26:43;6.70;99.90
6538;DHT22;3302;52.508;13.454;2022-11-12T07:29:09;6.90;99.90
6538;DHT22;3302;52.508;13.454;2022-11-12T07:31:35;6.90;99.90
6538;DHT22;3302;52.508;13.454;2022-11-12T07:34:00;6.80;99.90
6538;DHT22;3302;52.508;13.454;2022-11-12T07:36:27;7.00;99.90
6538;DHT22;3302;52.508;13.454;2022-11-12T07:38:53;7.10;99.90
6538;DHT22;3302;52.508;13.454;2022-11-12T07:41:23;7.20;99.90
6538;DHT22;3302;52.508;13.454;2022-11-12T07:43:51;7.10;99.90
6538;DHT22;3302;52.508;13.454;2022-11-12T07:46:20;7.00;99.90
6538;DHT22;3302;52.508;13.454;2022-11-12T07:48:46;7.00;99.90
6538;DHT22;3302;52.508;13.454;2022-11-12T07:51:15;7.20;99.90
6538;DHT22;3302;52.508;13.454;2022-11-12T07:53:42;7.20;99.90
6538;DHT22;3302;52.508;13.454;2022-11-12T07:56:11;7.10;99.90
6538;DHT22;3302;52.508;13.454;2022-11-12T07:58:37;7.10;99.90
6538;DHT22;3302;52.508;13.454;2022-11-12T08:01:30;7.10;99.90
6538;DHT22;3302;52.508;13.454;2022-11-12T08:04:00;7.20;99.90
6538;DHT22;3302;52.508;13.454;2022-11-12T08:06:27;7.20;99.90
6538;DHT22;3302;52.508;13.454;2022-11-12T08:08:54;7.20;99.90
6538;DHT22;3302;52.508;13.454;2022-11-12T08:11:20;7.30;99.90
6538;DHT22;3302;52.508;13.454;2022-11-12T08:13:46;7.30;99.90
6538;DHT22;3302;52.508;13.454;2022-11-12T08:16:12;7.30;99.90
6538;DHT22;3302;52.508;13.454;2022-11-12T08:18:38;7.30;99.90
6538;DHT22;3302;52.508;13.454;2022-11-12T08:21:06;7.40;99.90
6538;DHT22;3302;52.508;13.454;2022-11-12T08:23:32;7.60;99.90
6538;DHT22;3302;52.508;13.454;2022-11-12T08:25:59;7.70;99.90
6538;DHT22;3302;52.508;13.454;2022-11-12T08:28:27;7.70;99.90
6538;DHT22;3302;52.508;13.454;2022-11-12T08:30:53;7.80;99.90
6538;DHT22;3302;52.508;13.454;2022-11-12T08:33:19;7.90;99.90
6538;DHT22;3302;52.508;13.454;2022-11-12T08:35:45;8.00;99.90
6538;DHT22;3302;52.508;13.454;2022-11-12T08:38:11;8.20;99.90
6538;DHT22;3302;52.508;13.454;2022-11-12T08:40:39;8.00;99.90
6538;DHT22;3302;52.508;13.454;2022-11-12T08:43:06;8.20;99.90
6538;DHT22;3302;52.508;13.454;2022-11-12T08:45:33;8.20;99.90
6538;DHT22;3302;52.508;13.454;2022-11-12T08:48:08;8.30;99.90
6538;DHT22;3302;52.508;13.454;2022-11-12T08:50:35;8.40;99.90
6538;DHT22;3302;52.508;13.454;2022-11-12T08:53:07;8.50;99.90
6538;DHT22;3302;52.508;13.454;2022-11-12T08:55:34;8.50;99.90
6538;DHT22;3302;52.508;13.454;2022-11-12T08:58:00;8.60;99.90
6538;DHT22;3302;52.508;13.454;2022-11-12T09:00:39;8.70;99.90
6538;DHT22;3302;52.508;13.454;2022-11-12T09:03:07;8.80;99.90
6538;DHT22;3302;52.508;13.454;2022-11-12T09:05:36;8.90;99.90
6538;DHT22;3302;52.508;13.454;2022-11-12T09:08:05;9.00;99.90
6538;DHT22;3302;52.508;13.454;2022-11-12T09:10:32;9.00;99.90
6538;DHT22;3302;52.508;13.454;2022-11-12T09:12:58;9.20;99.90
6538;DHT22;3302;52.508;13.454;2022-11-12T09:15:25;9.10;99.90
6538;DHT22;3302;52.508;13.454;2022-11-12T09:17:55;9.30;99.90
6538;DHT22;3302;52.508;13.454;2022-11-12T09:20:22;9.40;99.90
6538;DHT22;3302;52.508;13.454;2022-11-12T09:22:48;9.40;99.90
6538;DHT22;3302;52.508;13.454;2022-11-12T09:25:14;9.50;99.90
6538;DHT22;3302;52.508;13.454;2022-11-12T09:27:40;9.50;99.90
6538;DHT22;3302;52.508;13.454;2022-11-12T09:30:06;9.70;99.90
6538;DHT22;3302;52.508;13.454;2022-11-12T09:32:32;9.80;99.90
6538;DHT22;3302;52.508;13.454;2022-11-12T09:34:58;10.50;99.90
6538;DHT22;3302;52.508;13.454;2022-11-12T09:37:23;10.70;99.90
6538;DHT22;3302;52.508;13.454;2022-11-12T09:39:49;11.00;99.90
6538;DHT22;3302;52.508;13.454;2022-11-12T09:42:17;10.80;99.90
6538;DHT22;3302;52.508;13.454;2022-11-12T09:44:54;10.90;99.90
6538;DHT22;3302;52.508;13.454;2022-11-12T09:47:48;11.10;99.90
6538;DHT22;3302;52.508;13.454;2022-11-12T09:50:29;11.20;99.90
6538;DHT22;3302;52.508;13.454;2022-11-12T09:55:51;10.80;99.90
6538;DHT22;3302;52.508;13.454;2022-11-12T09:58:18;10.90;99.90
6538;DHT22;3302;52.508;13.454;2022-11-12T10:01:12;10.80;99.90
6538;DHT22;3302;52.508;13.454;2022-11-12T10:04:00;10.90;99.90
6538;DHT22;3302;52.508;13.454;2022-11-12T10:06:48;10.80;99.90
6538;DHT22;3302;52.508;13.454;2022-11-12T10:09:21;10.90;99.90
6538;DHT22;3302;52.508;13.454;2022-11-12T10:18:12;10.90;99.90
6538;DHT22;3302;52.508;13.454;2022-11-12T10:21:00;10.90;99.90
6538;DHT22;3302;52.508;13.454;2022-11-12T10:23:39;11.00;99.90
6538;DHT22;3302;52.508;13.454;2022-11-12T10:26:11;11.10;99.90
6538;DHT22;3302;52.508;13.454;2022-11-12T10:28:45;11.20;99.90
6538;DHT22;3302;52.508;13.454;2022-11-12T10:31:21;11.20;99.90
6538;DHT22;3302;52.508;13.454;2022-11-12T10:33:47;11.20;99.90
6538;DHT22;3302;52.508;13.454;2022-11-12T10:38:51;11.30;99.90
6538;DHT22;3302;52.508;13.454;2022-11-12T10:41:20;11.40;99.90
6538;DHT22;3302;52.508;13.454;2022-11-12T10:44:04;11.50;99.90
6538;DHT22;3302;52.508;13.454;2022-11-12T10:46:35;11.60;99.90
6538;DHT22;3302;52.508;13.454;2022-11-12T10:51:40;11.70;99.90
6538;DHT22;3302;52.508;13.454;2022-11-12T10:54:28;11.80;99.90
6538;DHT22;3302;52.508;13.454;2022-11-12T10:56:55;11.80;99.90
6538;DHT22;3302;52.508;13.454;2022-11-12T10:59:24;11.90;99.90
6538;DHT22;3302;52.508;13.454;2022-11-12T11:01:58;12.00;99.90
6538;DHT22;3302;52.508;13.454;2022-11-12T11:06:59;12.10;99.90
6538;DHT22;3302;52.508;13.454;2022-11-12T11:09:26;12.10;99.90
6538;DHT22;3302;52.508;13.454;2022-11-12T11:11:52;12.20;99.90
6538;DHT22;3302;52.508;13.454;2022-11-12T11:17:02;12.30;99.90
6538;DHT22;3302;52.508;13.454;2022-11-12T11:19:41;12.40;99.90
6538;DHT22;3302;52.508;13.454;2022-11-12T11:22:37;12.40;99.90
6538;DHT22;3302;52.508;13.454;2022-11-12T11:25:19;12.40;99.90
6538;DHT22;3302;52.508;13.454;2022-11-12T11:31:01;12.40;99.90
6538;DHT22;3302;52.508;13.454;2022-11-12T11:39:05;12.40;99.90
6538;DHT22;3302;52.508;13.454;2022-11-12T11:41:46;12.40;99.90
6538;DHT22;3302;52.508;13.454;2022-11-12T11:44:21;12.50;99.90
6538;DHT22;3302;52.508;13.454;2022-11-12T11:47:07;12.60;99.90
6538;DHT22;3302;52.508;13.454;2022-11-12T11:49:36;12.70;99.90
6538;DHT22;3302;52.508;13.454;2022-11-12T12:00:11;12.80;99.90
6538;DHT22;3302;52.508;13.454;2022-11-12T12:03:18;12.80;99.90
6538;DHT22;3302;52.508;13.454;2022-11-12T12:09:01;13.00;99.90
6538;DHT22;3302;52.508;13.454;2022-11-12T12:11:38;13.00;99.90
6538;DHT22;3302;52.508;13.454;2022-11-12T12:14:35;12.90;99.90
6538;DHT22;3302;52.508;13.454;2022-11-12T12:17:18;13.00;99.90
6538;DHT22;3302;52.508;13.454;2022-11-12T12:20:25;13.00;99.90
6538;DHT22;3302;52.508;13.454;2022-11-12T12:22:55;13.00;99.90
6538;DHT22;3302;52.508;13.454;2022-11-12T12:25:34;13.00;99.90
6538;DHT22;3302;52.508;13.454;2022-11-12T12:28:26;13.00;99.90
6538;DHT22;3302;52.508;13.454;2022-11-12T12:30:59;13.00;99.90
6538;DHT22;3302;52.508;13.454;2022-11-12T12:33:50;13.00;99.90
6538;DHT22;3302;52.508;13.454;2022-11-12T12:36:35;13.00;99.90
6538;DHT22;3302;52.508;13.454;2022-11-12T12:39:10;13.00;99.90
6538;DHT22;3302;52.508;13.454;2022-11-12T12:42:02;13.00;99.90
6538;DHT22;3302;52.508;13.454;2022-11-12T12:44:38;13.00;99.90
6538;DHT22;3302;52.508;13.454;2022-11-12T12:47:25;12.90;99.90
6538;DHT22;3302;52.508;13.454;2022-11-12T12:49:51;13.00;99.90
6538;DHT22;3302;52.508;13.454;2022-11-12T12:52:18;13.10;99.90
6538;DHT22;3302;52.508;13.454;2022-11-12T12:57:34;13.00;99.90
6538;DHT22;3302;52.508;13.454;2022-11-12T13:02:54;13.00;99.90
6538;DHT22;3302;52.508;13.454;2022-11-12T13:07:49;13.10;99.90
6538;DHT22;3302;52.508;13.454;2022-11-12T13:13:27;12.90;99.90
6538;DHT22;3302;52.508;13.454;2022-11-12T13:15:55;12.90;99.90
6538;DHT22;3302;52.508;13.454;2022-11-12T13:26:47;12.90;99.90
6538;DHT22;3302;52.508;13.454;2022-11-12T13:40:30;12.90;99.90
6538;DHT22;3302;52.508;13.454;2022-11-12T13:45:45;13.00;99.90
6538;DHT22;3302;52.508;13.454;2022-11-12T13:48:29;13.00;99.90
6538;DHT22;3302;52.508;13.454;2022-11-12T13:51:06;12.90;99.90
6538;DHT22;3302;52.508;13.454;2022-11-12T13:53:37;12.90;99.90
6538;DHT22;3302;52.508;13.454;2022-11-12T13:56:03;12.90;99.90
6538;DHT22;3302;52.508;13.454;2022-11-12T13:58:32;12.90;99.90
6538;DHT22;3302;52.508;13.454;2022-11-12T14:01:03;12.80;99.90
6538;DHT22;3302;52.508;13.454;2022-11-12T14:03:41;12.80;99.90
6538;DHT22;3302;52.508;13.454;2022-11-12T14:06:23;12.70;99.90
6538;DHT22;3302;52.508;13.454;2022-11-12T14:15:17;12.70;99.90
6538;DHT22;3302;52.508;13.454;2022-11-12T14:18:10;12.70;99.90
6538;DHT22;3302;52.508;13.454;2022-11-12T14:20:39;12.60;99.90
6538;DHT22;3302;52.508;13.454;2022-11-12T14:23:15;12.60;99.90
6538;DHT22;3302;52.508;13.454;2022-11-12T14:25:53;12.60;99.90
6538;DHT22;3302;52.508;13.454;2022-11-12T14:28:30;12.60;99.90
6538;DHT22;3302;52.508;13.454;2022-11-12T14:30:58;12.60;99.90
6538;DHT22;3302;52.508;13.454;2022-11-12T14:33:26;12.60;99.90
6538;DHT22;3302;52.508;13.454;2022-11-12T14:35:54;12.60;99.90
6538;DHT22;3302;52.508;13.454;2022-11-12T14:38:28;12.60;99.90
6538;DHT22;3302;52.508;13.454;2022-11-12T14:40:58;12.60;99.90
6538;DHT22;3302;52.508;13.454;2022-11-12T14:43:34;12.70;99.90
6538;DHT22;3302;52.508;13.454;2022-11-12T14:46:02;12.70;99.90
6538;DHT22;3302;52.508;13.454;2022-11-12T14:48:46;12.60;99.90
6538;DHT22;3302;52.508;13.454;2022-11-12T14:51:13;12.60;99.90
6538;DHT22;3302;52.508;13.454;2022-11-12T14:53:44;12.60;99.90
6538;DHT22;3302;52.508;13.454;2022-11-12T14:56:31;12.50;99.90
6538;DHT22;3302;52.508;13.454;2022-11-12T14:58:58;12.50;99.90
6538;DHT22;3302;52.508;13.454;2022-11-12T15:01:30;12.40;99.90
6538;DHT22;3302;52.508;13.454;2022-11-12T15:06:40;12.40;99.90
6538;DHT22;3302;52.508;13.454;2022-11-12T15:09:06;12.30;99.90
6538;DHT22;3302;52.508;13.454;2022-11-12T15:11:35;12.30;99.90
6538;DHT22;3302;52.508;13.454;2022-11-12T15:14:19;12.30;99.90
6538;DHT22;3302;52.508;13.454;2022-11-12T15:16:46;12.30;99.90
6538;DHT22;3302;52.508;13.454;2022-11-12T15:19:26;12.20;99.90
6538;DHT22;3302;52.508;13.454;2022-11-12T15:22:00;12.20;99.90
6538;DHT22;3302;52.508;13.454;2022-11-12T15:24:33;12.10;99.90
6538;DHT22;3302;52.508;13.454;2022-11-12T15:27:01;12.00;99.90
6538;DHT22;3302;52.508;13.454;2022-11-12T15:29:46;12.00;99.90
6538;DHT22;3302;52.508;13.454;2022-11-12T15:37:18;11.90;99.90
6538;DHT22;3302;52.508;13.454;2022-11-12T15:39:51;11.80;99.90
6538;DHT22;3302;52.508;13.454;2022-11-12T15:42:36;11.80;99.90
6538;DHT22;3302;52.508;13.454;2022-11-12T15:45:09;11.70;99.90
6538;DHT22;3302;52.508;13.454;2022-11-12T15:47:37;11.60;99.90
6538;DHT22;3302;52.508;13.454;2022-11-12T15:50:23;11.60;99.90
6538;DHT22;3302;52.508;13.454;2022-11-12T15:52:49;11.60;99.90
6538;DHT22;3302;52.508;13.454;2022-11-12T15:55:16;11.60;99.90
6538;DHT22;3302;52.508;13.454;2022-11-12T15:57:47;11.60;99.90
6538;DHT22;3302;52.508;13.454;2022-11-12T16:00:22;11.60;99.90
6538;DHT22;3302;52.508;13.454;2022-11-12T16:02:53;11.50;99.90
6538;DHT22;3302;52.508;13.454;2022-11-12T16:05:20;11.50;99.90
6538;DHT22;3302;52.508;13.454;2022-11-12T16:07:46;11.50;99.90
6538;DHT22;3302;52.508;13.454;2022-11-12T16:10:13;11.40;99.90
6538;DHT22;3302;52.508;13.454;2022-11-12T16:12:40;11.30;99.90
6538;DHT22;3302;52.508;13.454;2022-11-12T16:15:14;11.30;99.90
6538;DHT22;3302;52.508;13.454;2022-11-12T16:17:40;11.30;99.90
6538;DHT22;3302;52.508;13.454;2022-11-12T16:20:18;11.20;99.90
6538;DHT22;3302;52.508;13.454;2022-11-12T16:22:48;11.20;99.90
6538;DHT22;3302;52.508;13.454;2022-11-12T16:25:14;11.20;99.90
6538;DHT22;3302;52.508;13.454;2022-11-12T16:27:40;11.10;99.90
6538;DHT22;3302;52.508;13.454;2022-11-12T16:30:14;11.10;99.90
6538;DHT22;3302;52.508;13.454;2022-11-12T16:32:40;11.10;99.90
6538;DHT22;3302;52.508;13.454;2022-11-12T16:35:09;11.10;99.90
6538;DHT22;3302;52.508;13.454;2022-11-12T16:37:34;11.00;99.90
6538;DHT22;3302;52.508;13.454;2022-11-12T16:40:04;11.00;99.90
6538;DHT22;3302;52.508;13.454;2022-11-12T16:42:31;10.90;99.90
6538;DHT22;3302;52.508;13.454;2022-11-12T16:44:57;10.90;99.90
6538;DHT22;3302;52.508;13.454;2022-11-12T16:47:23;10.90;99.90
6538;DHT22;3302;52.508;13.454;2022-11-12T16:49:48;10.90;99.90
6538;DHT22;3302;52.508;13.454;2022-11-12T16:52:14;10.90;99.90
6538;DHT22;3302;52.508;13.454;2022-11-12T16:54:40;10.90;99.90
6538;DHT22;3302;52.508;13.454;2022-11-12T16:57:09;10.80;99.90
6538;DHT22;3302;52.508;13.454;2022-11-12T16:59:35;10.80;99.90
6538;DHT22;3302;52.508;13.454;2022-11-12T17:02:01;10.60;99.90
6538;DHT22;3302;52.508;13.454;2022-11-12T17:04:27;10.60;99.90
6538;DHT22;3302;52.508;13.454;2022-11-12T17:06:53;10.60;99.90
6538;DHT22;3302;52.508;13.454;2022-11-12T17:09:19;10.70;99.90
6538;DHT22;3302;52.508;13.454;2022-11-12T17:11:44;10.60;99.90
6538;DHT22;3302;52.508;13.454;2022-11-12T17:14:10;10.60;99.90
6538;DHT22;3302;52.508;13.454;2022-11-12T17:16:36;10.50;99.90
6538;DHT22;3302;52.508;13.454;2022-11-12T17:19:02;10.40;99.90
6538;DHT22;3302;52.508;13.454;2022-11-12T17:21:28;10.40;99.90
6538;DHT22;3302;52.508;13.454;2022-11-12T17:23:54;10.40;99.90
6538;DHT22;3302;52.508;13.454;2022-11-12T17:26:21;10.40;99.90
6538;DHT22;3302;52.508;13.454;2022-11-12T17:28:48;10.40;99.90
6538;DHT22;3302;52.508;13.454;2022-11-12T17:31:14;10.30;99.90
6538;DHT22;3302;52.508;13.454;2022-11-12T17:33:45;10.30;99.90
6538;DHT22;3302;52.508;13.454;2022-11-12T17:36:14;10.20;99.90
6538;DHT22;3302;52.508;13.454;2022-11-12T17:38:41;10.30;99.90
6538;DHT22;3302;52.508;13.454;2022-11-12T17:41:08;10.10;99.90
6538;DHT22;3302;52.508;13.454;2022-11-12T17:43:35;10.10;99.90